Accueil
METAR-TAF:

METAR-TAF

Aéroports :

Aéroport de Kangiqsualujjuaq

Kangiqsualujjuaq, Québec, Canada

latitude: 58-43N, longitude: 065-59W, altitude: 60 m

Observation

Le bulletin a été fait il y a 1 heure et 27 minutes, à 21:00 UTC
Vent 11 kt de ouest
Température -6°C
Humidité 62%
Pression 1009 hPa
Visibilité: 20.9 km
Nuages fragmentés à une hauteur de 3400 ft
Nuages fragmentés à une hauteur de 7900 ft

METAR: CYLU 192100Z 28011KT 13SM BKN034 BKN079 M06/M12 A2979 RMK SC5AC1 LAST STFD OBS/NEXT 201200UTC SNW CVR/MUCH LOOSE SLP096

Heure: 18:27 (22:27 UTC)


TAF: absent

Observations et prévisions météorologiques de plus de 4000 aéroports (messages METAR et TAF).

Les stations disponibles sont représentées par des disques jaunes et rouges sur la carte.

Passer la souris dessus pour voir le nom de la station.

Cliquer dessus pour voir les observations et prévisions météorologiques.

Pour changer de carte: cliquez sur les boutons verts avec une croix noire pour zoomer, sur le bouton vert avec un tiret pour effectuer un zoom arrière, ou sur les flèches vertes pour les cartes adjacentes.


METAR-TAF: